首页
METAR-TAF:

METAR-TAF

机场 :

普雷斯科特, 亞利桑那州, 美国

纬度: 34-38-57N, 经度: 112-25-20W, 海拔: 1537米

当前天气观测

该预报发布于11分钟前的20:00 UTC
风速16节,风向西南,有时为25节阵风
温度 18°C
湿度 18%
气压 1013 hPa
能見度: 16.1公里
天空无云

METAR: KPRC 022000Z 23016G25KT 10SM CLR 18/M07 A2991 RMK AO2 WSHFT 1940 T01781067

时间: 13:11 (20:11 UTC)

预报

该预报发布于2小时和44分钟前的17:27 UTC
预报有效从02日的 18点(UTC)到 03日的 18点(UTC)
风速16节,风向西南,有时为24节阵风
能見度: 10公里
天空无云
从 03日的 0200点(UTC)
风速10节,风向西转西南
能見度: 10公里
天空无云

TAF: KPRC 021727Z 0218/0318 23016G24KT P6SM SKC FM030200 25010KT P6SM SKC

超过4000个机场的气象观测和天气预报(METAR&TAF报告)。

可查询的气象台以黄色和红色小点在地图上表示。

将鼠标移到小点上方,可查看气象台名称。

然后点击查看天气观测和预报。

如需切换地图:点击带黑十字的绿色按钮放大地图;点击带横线的绿色按钮缩小地图;或者点击绿色箭头查看邻近地区的地图。


METAR-TAF: